sensor_id;sensor_type;location;lat;lon;timestamp;P1;durP1;ratioP1;P2;durP2;ratioP2
13959;SDS011;7052;51.050;3.716;2022-08-27T00:01:10;7.15;;;4.18;;
13959;SDS011;7052;51.050;3.716;2022-08-27T00:03:40;6.30;;;4.18;;
13959;SDS011;7052;51.050;3.716;2022-08-27T00:06:07;5.72;;;3.88;;
13959;SDS011;7052;51.050;3.716;2022-08-27T00:08:36;10.73;;;4.18;;
13959;SDS011;7052;51.050;3.716;2022-08-27T00:11:03;7.20;;;4.43;;
13959;SDS011;7052;51.050;3.716;2022-08-27T00:13:31;6.93;;;4.00;;
13959;SDS011;7052;51.050;3.716;2022-08-27T00:15:58;7.68;;;4.65;;
13959;SDS011;7052;51.050;3.716;2022-08-27T00:18:25;6.85;;;4.22;;
13959;SDS011;7052;51.050;3.716;2022-08-27T00:20:52;8.55;;;4.30;;
13959;SDS011;7052;51.050;3.716;2022-08-27T00:23:19;6.18;;;4.35;;
13959;SDS011;7052;51.050;3.716;2022-08-27T00:25:46;8.32;;;4.50;;
13959;SDS011;7052;51.050;3.716;2022-08-27T00:28:13;7.20;;;4.45;;
13959;SDS011;7052;51.050;3.716;2022-08-27T00:30:41;7.75;;;4.20;;
13959;SDS011;7052;51.050;3.716;2022-08-27T00:33:08;8.27;;;5.60;;
13959;SDS011;7052;51.050;3.716;2022-08-27T00:35:35;7.15;;;4.38;;
13959;SDS011;7052;51.050;3.716;2022-08-27T00:38:02;4.68;;;4.13;;
13959;SDS011;7052;51.050;3.716;2022-08-27T00:40:30;6.55;;;4.43;;
13959;SDS011;7052;51.050;3.716;2022-08-27T00:42:57;9.20;;;4.57;;
13959;SDS011;7052;51.050;3.716;2022-08-27T00:45:26;6.47;;;4.35;;
13959;SDS011;7052;51.050;3.716;2022-08-27T00:47:55;7.63;;;4.38;;
13959;SDS011;7052;51.050;3.716;2022-08-27T00:50:27;6.65;;;4.30;;
13959;SDS011;7052;51.050;3.716;2022-08-27T00:52:58;8.43;;;4.60;;
13959;SDS011;7052;51.050;3.716;2022-08-27T00:55:28;7.20;;;4.32;;
13959;SDS011;7052;51.050;3.716;2022-08-27T00:58:01;7.55;;;4.40;;
13959;SDS011;7052;51.050;3.716;2022-08-27T01:00:32;8.07;;;4.78;;
13959;SDS011;7052;51.050;3.716;2022-08-27T01:03:01;6.13;;;4.25;;
13959;SDS011;7052;51.050;3.716;2022-08-27T01:05:29;8.63;;;4.57;;
13959;SDS011;7052;51.050;3.716;2022-08-27T01:07:56;8.07;;;4.88;;
13959;SDS011;7052;51.050;3.716;2022-08-27T01:10:33;6.75;;;4.72;;
13959;SDS011;7052;51.050;3.716;2022-08-27T01:13:00;8.40;;;4.70;;
13959;SDS011;7052;51.050;3.716;2022-08-27T01:15:28;6.80;;;4.50;;
13959;SDS011;7052;51.050;3.716;2022-08-27T01:17:55;10.52;;;5.22;;
13959;SDS011;7052;51.050;3.716;2022-08-27T01:20:26;7.25;;;4.88;;
13959;SDS011;7052;51.050;3.716;2022-08-27T01:22:58;7.10;;;4.47;;
13959;SDS011;7052;51.050;3.716;2022-08-27T01:25:31;7.38;;;4.72;;
13959;SDS011;7052;51.050;3.716;2022-08-27T01:27:59;10.38;;;5.15;;
13959;SDS011;7052;51.050;3.716;2022-08-27T01:30:28;5.70;;;4.85;;
13959;SDS011;7052;51.050;3.716;2022-08-27T01:32:55;8.57;;;4.80;;
13959;SDS011;7052;51.050;3.716;2022-08-27T01:35:23;7.18;;;4.57;;
13959;SDS011;7052;51.050;3.716;2022-08-27T01:37:51;6.47;;;4.82;;
13959;SDS011;7052;51.050;3.716;2022-08-27T01:40:20;7.13;;;4.80;;
13959;SDS011;7052;51.050;3.716;2022-08-27T01:42:49;7.50;;;5.10;;
13959;SDS011;7052;51.050;3.716;2022-08-27T01:45:19;9.93;;;5.15;;
13959;SDS011;7052;51.050;3.716;2022-08-27T01:47:50;6.63;;;4.75;;
13959;SDS011;7052;51.050;3.716;2022-08-27T01:50:17;7.57;;;4.90;;
13959;SDS011;7052;51.050;3.716;2022-08-27T01:52:47;8.10;;;4.85;;
13959;SDS011;7052;51.050;3.716;2022-08-27T01:55:15;7.90;;;5.18;;
13959;SDS011;7052;51.050;3.716;2022-08-27T01:57:44;9.93;;;5.28;;
13959;SDS011;7052;51.050;3.716;2022-08-27T02:00:14;7.22;;;4.82;;
13959;SDS011;7052;51.050;3.716;2022-08-27T02:02:43;10.50;;;5.28;;
13959;SDS011;7052;51.050;3.716;2022-08-27T02:05:11;7.20;;;5.13;;
13959;SDS011;7052;51.050;3.716;2022-08-27T02:07:39;10.73;;;5.78;;
13959;SDS011;7052;51.050;3.716;2022-08-27T02:10:07;8.10;;;5.30;;
13959;SDS011;7052;51.050;3.716;2022-08-27T02:12:37;7.93;;;5.55;;
13959;SDS011;7052;51.050;3.716;2022-08-27T02:15:04;7.75;;;5.20;;
13959;SDS011;7052;51.050;3.716;2022-08-27T02:17:33;8.75;;;5.45;;
13959;SDS011;7052;51.050;3.716;2022-08-27T02:20:00;10.30;;;5.82;;
13959;SDS011;7052;51.050;3.716;2022-08-27T02:22:27;7.75;;;5.25;;
13959;SDS011;7052;51.050;3.716;2022-08-27T02:24:54;8.73;;;5.25;;
13959;SDS011;7052;51.050;3.716;2022-08-27T02:27:21;8.65;;;5.60;;
13959;SDS011;7052;51.050;3.716;2022-08-27T02:29:48;8.40;;;5.47;;
13959;SDS011;7052;51.050;3.716;2022-08-27T02:32:16;10.35;;;5.45;;
13959;SDS011;7052;51.050;3.716;2022-08-27T02:34:46;8.48;;;5.38;;
13959;SDS011;7052;51.050;3.716;2022-08-27T02:37:13;8.65;;;5.38;;
13959;SDS011;7052;51.050;3.716;2022-08-27T02:39:41;9.65;;;5.63;;
13959;SDS011;7052;51.050;3.716;2022-08-27T02:42:08;7.80;;;5.68;;
13959;SDS011;7052;51.050;3.716;2022-08-27T02:44:35;8.63;;;5.53;;
13959;SDS011;7052;51.050;3.716;2022-08-27T02:47:02;8.55;;;5.50;;
13959;SDS011;7052;51.050;3.716;2022-08-27T02:49:29;9.40;;;5.28;;
13959;SDS011;7052;51.050;3.716;2022-08-27T02:51:57;8.18;;;5.57;;
13959;SDS011;7052;51.050;3.716;2022-08-27T02:54:24;7.47;;;5.10;;
13959;SDS011;7052;51.050;3.716;2022-08-27T02:56:52;6.63;;;5.45;;
13959;SDS011;7052;51.050;3.716;2022-08-27T02:59:19;9.40;;;6.13;;
13959;SDS011;7052;51.050;3.716;2022-08-27T03:01:47;10.65;;;6.05;;
13959;SDS011;7052;51.050;3.716;2022-08-27T03:04:14;7.10;;;5.50;;
13959;SDS011;7052;51.050;3.716;2022-08-27T03:06:42;7.75;;;5.22;;
13959;SDS011;7052;51.050;3.716;2022-08-27T03:09:11;8.27;;;5.28;;
13959;SDS011;7052;51.050;3.716;2022-08-27T03:11:38;10.45;;;6.10;;
13959;SDS011;7052;51.050;3.716;2022-08-27T03:14:05;9.63;;;5.70;;
13959;SDS011;7052;51.050;3.716;2022-08-27T03:16:32;9.02;;;5.68;;
13959;SDS011;7052;51.050;3.716;2022-08-27T03:18:59;8.60;;;5.65;;
13959;SDS011;7052;51.050;3.716;2022-08-27T03:21:25;7.78;;;6.25;;
13959;SDS011;7052;51.050;3.716;2022-08-27T03:23:52;9.88;;;5.60;;
13959;SDS011;7052;51.050;3.716;2022-08-27T03:26:21;6.13;;;5.45;;
13959;SDS011;7052;51.050;3.716;2022-08-27T03:28:48;8.40;;;5.72;;
13959;SDS011;7052;51.050;3.716;2022-08-27T03:31:16;9.30;;;6.63;;
13959;SDS011;7052;51.050;3.716;2022-08-27T03:33:51;8.88;;;6.25;;
13959;SDS011;7052;51.050;3.716;2022-08-27T03:36:19;7.53;;;6.10;;
13959;SDS011;7052;51.050;3.716;2022-08-27T03:38:46;10.75;;;6.68;;
13959;SDS011;7052;51.050;3.716;2022-08-27T03:41:13;9.63;;;6.22;;
13959;SDS011;7052;51.050;3.716;2022-08-27T03:43:43;11.50;;;6.50;;
13959;SDS011;7052;51.050;3.716;2022-08-27T03:46:11;11.80;;;6.70;;
13959;SDS011;7052;51.050;3.716;2022-08-27T03:48:38;8.95;;;6.75;;
13959;SDS011;7052;51.050;3.716;2022-08-27T03:51:06;12.30;;;7.10;;
13959;SDS011;7052;51.050;3.716;2022-08-27T03:53:34;10.82;;;6.45;;
13959;SDS011;7052;51.050;3.716;2022-08-27T03:56:02;11.25;;;6.53;;
13959;SDS011;7052;51.050;3.716;2022-08-27T03:58:30;10.63;;;6.95;;
13959;SDS011;7052;51.050;3.716;2022-08-27T04:00:58;8.00;;;6.03;;
13959;SDS011;7052;51.050;3.716;2022-08-27T04:03:25;10.27;;;6.47;;
13959;SDS011;7052;51.050;3.716;2022-08-27T04:05:53;9.63;;;6.85;;
13959;SDS011;7052;51.050;3.716;2022-08-27T04:08:20;10.93;;;6.80;;
13959;SDS011;7052;51.050;3.716;2022-08-27T04:10:48;11.43;;;6.75;;
13959;SDS011;7052;51.050;3.716;2022-08-27T04:13:15;9.25;;;6.75;;
13959;SDS011;7052;51.050;3.716;2022-08-27T04:15:43;10.13;;;6.93;;
13959;SDS011;7052;51.050;3.716;2022-08-27T04:18:12;8.68;;;6.68;;
13959;SDS011;7052;51.050;3.716;2022-08-27T04:20:40;8.82;;;7.20;;
13959;SDS011;7052;51.050;3.716;2022-08-27T04:23:07;8.52;;;6.47;;
13959;SDS011;7052;51.050;3.716;2022-08-27T04:25:37;10.95;;;7.03;;
13959;SDS011;7052;51.050;3.716;2022-08-27T04:28:04;12.73;;;7.13;;
13959;SDS011;7052;51.050;3.716;2022-08-27T04:30:31;7.07;;;6.38;;
13959;SDS011;7052;51.050;3.716;2022-08-27T04:32:58;10.23;;;6.93;;
13959;SDS011;7052;51.050;3.716;2022-08-27T04:35:26;10.75;;;6.50;;
13959;SDS011;7052;51.050;3.716;2022-08-27T04:37:53;10.82;;;6.78;;
13959;SDS011;7052;51.050;3.716;2022-08-27T04:40:21;10.75;;;6.72;;
13959;SDS011;7052;51.050;3.716;2022-08-27T04:43:08;9.82;;;6.80;;
13959;SDS011;7052;51.050;3.716;2022-08-27T04:45:40;11.25;;;7.18;;
13959;SDS011;7052;51.050;3.716;2022-08-27T04:48:09;8.65;;;6.57;;
13959;SDS011;7052;51.050;3.716;2022-08-27T04:50:39;8.73;;;6.53;;
13959;SDS011;7052;51.050;3.716;2022-08-27T04:53:07;10.55;;;6.80;;
13959;SDS011;7052;51.050;3.716;2022-08-27T04:55:39;8.60;;;6.68;;
13959;SDS011;7052;51.050;3.716;2022-08-27T04:58:07;10.50;;;6.95;;
13959;SDS011;7052;51.050;3.716;2022-08-27T05:00:39;10.68;;;7.05;;
13959;SDS011;7052;51.050;3.716;2022-08-27T05:03:07;12.02;;;7.30;;
13959;SDS011;7052;51.050;3.716;2022-08-27T05:05:34;10.65;;;6.47;;
13959;SDS011;7052;51.050;3.716;2022-08-27T05:08:03;9.82;;;6.97;;
13959;SDS011;7052;51.050;3.716;2022-08-27T05:10:37;7.55;;;6.43;;
13959;SDS011;7052;51.050;3.716;2022-08-27T05:13:05;9.32;;;6.95;;
13959;SDS011;7052;51.050;3.716;2022-08-27T05:15:32;10.23;;;6.93;;
13959;SDS011;7052;51.050;3.716;2022-08-27T05:17:59;9.20;;;6.55;;
13959;SDS011;7052;51.050;3.716;2022-08-27T05:20:27;7.97;;;6.60;;
13959;SDS011;7052;51.050;3.716;2022-08-27T05:22:55;8.25;;;6.60;;
13959;SDS011;7052;51.050;3.716;2022-08-27T05:25:23;9.80;;;6.32;;
13959;SDS011;7052;51.050;3.716;2022-08-27T05:27:51;11.85;;;6.65;;
13959;SDS011;7052;51.050;3.716;2022-08-27T05:30:18;10.25;;;6.65;;
13959;SDS011;7052;51.050;3.716;2022-08-27T05:32:45;11.25;;;6.13;;
13959;SDS011;7052;51.050;3.716;2022-08-27T05:35:12;10.48;;;7.03;;
13959;SDS011;7052;51.050;3.716;2022-08-27T05:37:39;8.82;;;6.53;;
13959;SDS011;7052;51.050;3.716;2022-08-27T05:40:07;10.00;;;6.15;;
13959;SDS011;7052;51.050;3.716;2022-08-27T05:42:36;11.20;;;6.15;;
13959;SDS011;7052;51.050;3.716;2022-08-27T05:45:03;11.63;;;6.47;;
13959;SDS011;7052;51.050;3.716;2022-08-27T05:47:30;10.68;;;6.15;;
13959;SDS011;7052;51.050;3.716;2022-08-27T05:49:57;9.02;;;6.45;;
13959;SDS011;7052;51.050;3.716;2022-08-27T05:52:24;9.32;;;6.15;;
13959;SDS011;7052;51.050;3.716;2022-08-27T05:54:51;8.00;;;6.05;;
13959;SDS011;7052;51.050;3.716;2022-08-27T05:57:18;10.73;;;6.20;;
13959;SDS011;7052;51.050;3.716;2022-08-27T05:59:46;10.57;;;6.05;;
13959;SDS011;7052;51.050;3.716;2022-08-27T06:02:30;11.50;;;6.35;;
13959;SDS011;7052;51.050;3.716;2022-08-27T06:05:01;8.73;;;6.15;;
13959;SDS011;7052;51.050;3.716;2022-08-27T06:07:29;9.75;;;6.30;;
13959;SDS011;7052;51.050;3.716;2022-08-27T06:09:56;11.43;;;6.63;;
13959;SDS011;7052;51.050;3.716;2022-08-27T06:12:23;8.00;;;5.97;;
13959;SDS011;7052;51.050;3.716;2022-08-27T06:14:51;9.05;;;5.57;;
13959;SDS011;7052;51.050;3.716;2022-08-27T06:17:18;9.75;;;5.65;;
13959;SDS011;7052;51.050;3.716;2022-08-27T06:19:45;14.00;;;6.15;;
13959;SDS011;7052;51.050;3.716;2022-08-27T06:22:12;11.73;;;5.70;;
13959;SDS011;7052;51.050;3.716;2022-08-27T06:24:39;8.10;;;5.25;;
13959;SDS011;7052;51.050;3.716;2022-08-27T06:27:08;8.35;;;5.07;;
13959;SDS011;7052;51.050;3.716;2022-08-27T06:29:36;8.20;;;5.75;;
13959;SDS011;7052;51.050;3.716;2022-08-27T06:32:06;10.40;;;5.50;;
13959;SDS011;7052;51.050;3.716;2022-08-27T06:34:36;8.27;;;5.13;;
13959;SDS011;7052;51.050;3.716;2022-08-27T06:37:04;9.93;;;5.30;;
13959;SDS011;7052;51.050;3.716;2022-08-27T06:39:31;10.60;;;6.30;;
13959;SDS011;7052;51.050;3.716;2022-08-27T06:42:00;9.70;;;6.10;;
13959;SDS011;7052;51.050;3.716;2022-08-27T06:44:28;12.38;;;6.72;;
13959;SDS011;7052;51.050;3.716;2022-08-27T06:46:55;14.45;;;6.28;;
13959;SDS011;7052;51.050;3.716;2022-08-27T06:49:23;11.20;;;5.78;;
13959;SDS011;7052;51.050;3.716;2022-08-27T06:51:50;13.98;;;6.30;;
13959;SDS011;7052;51.050;3.716;2022-08-27T06:54:17;8.30;;;5.43;;
13959;SDS011;7052;51.050;3.716;2022-08-27T06:56:44;9.45;;;5.82;;
13959;SDS011;7052;51.050;3.716;2022-08-27T06:59:13;10.35;;;5.68;;
13959;SDS011;7052;51.050;3.716;2022-08-27T07:01:42;9.88;;;5.97;;
13959;SDS011;7052;51.050;3.716;2022-08-27T07:04:16;9.45;;;4.90;;
13959;SDS011;7052;51.050;3.716;2022-08-27T07:06:46;9.60;;;5.68;;
13959;SDS011;7052;51.050;3.716;2022-08-27T07:09:13;11.93;;;6.20;;
13959;SDS011;7052;51.050;3.716;2022-08-27T07:11:41;10.30;;;6.50;;
13959;SDS011;7052;51.050;3.716;2022-08-27T07:14:08;15.10;;;6.28;;
13959;SDS011;7052;51.050;3.716;2022-08-27T07:16:35;8.90;;;6.05;;
13959;SDS011;7052;51.050;3.716;2022-08-27T07:19:02;13.40;;;7.25;;
13959;SDS011;7052;51.050;3.716;2022-08-27T07:21:30;15.25;;;7.43;;
13959;SDS011;7052;51.050;3.716;2022-08-27T07:23:59;14.30;;;7.45;;
13959;SDS011;7052;51.050;3.716;2022-08-27T07:26:29;13.20;;;6.97;;
13959;SDS011;7052;51.050;3.716;2022-08-27T07:28:56;9.00;;;5.57;;
13959;SDS011;7052;51.050;3.716;2022-08-27T07:31:24;5.72;;;4.28;;
13959;SDS011;7052;51.050;3.716;2022-08-27T07:33:52;5.30;;;4.25;;
13959;SDS011;7052;51.050;3.716;2022-08-27T07:36:19;12.27;;;6.38;;
13959;SDS011;7052;51.050;3.716;2022-08-27T07:38:46;8.38;;;4.60;;
13959;SDS011;7052;51.050;3.716;2022-08-27T07:41:15;5.93;;;4.70;;
13959;SDS011;7052;51.050;3.716;2022-08-27T07:43:42;10.40;;;5.20;;
13959;SDS011;7052;51.050;3.716;2022-08-27T07:46:26;8.70;;;4.53;;
13959;SDS011;7052;51.050;3.716;2022-08-27T07:48:53;6.40;;;4.30;;
13959;SDS011;7052;51.050;3.716;2022-08-27T07:51:22;8.55;;;4.30;;
13959;SDS011;7052;51.050;3.716;2022-08-27T07:53:51;7.97;;;4.13;;
13959;SDS011;7052;51.050;3.716;2022-08-27T07:56:20;6.50;;;3.92;;
13959;SDS011;7052;51.050;3.716;2022-08-27T07:58:47;9.45;;;4.00;;
13959;SDS011;7052;51.050;3.716;2022-08-27T08:01:15;10.25;;;4.50;;
13959;SDS011;7052;51.050;3.716;2022-08-27T08:03:42;6.57;;;4.18;;
13959;SDS011;7052;51.050;3.716;2022-08-27T08:06:09;8.80;;;4.65;;
13959;SDS011;7052;51.050;3.716;2022-08-27T08:08:39;7.25;;;5.18;;
13959;SDS011;7052;51.050;3.716;2022-08-27T08:11:06;8.23;;;5.78;;
13959;SDS011;7052;51.050;3.716;2022-08-27T08:13:36;10.82;;;5.80;;
13959;SDS011;7052;51.050;3.716;2022-08-27T08:16:03;10.73;;;6.28;;
13959;SDS011;7052;51.050;3.716;2022-08-27T08:18:32;9.05;;;5.70;;
13959;SDS011;7052;51.050;3.716;2022-08-27T08:21:00;11.85;;;5.90;;
13959;SDS011;7052;51.050;3.716;2022-08-27T08:23:27;12.90;;;6.18;;
13959;SDS011;7052;51.050;3.716;2022-08-27T08:25:54;7.85;;;5.35;;
13959;SDS011;7052;51.050;3.716;2022-08-27T08:28:22;11.95;;;4.88;;
13959;SDS011;7052;51.050;3.716;2022-08-27T08:30:51;11.40;;;5.22;;
13959;SDS011;7052;51.050;3.716;2022-08-27T08:33:18;9.50;;;4.50;;
13959;SDS011;7052;51.050;3.716;2022-08-27T08:35:45;8.05;;;3.40;;
13959;SDS011;7052;51.050;3.716;2022-08-27T08:38:14;6.15;;;3.38;;
13959;SDS011;7052;51.050;3.716;2022-08-27T08:40:42;7.82;;;3.17;;
13959;SDS011;7052;51.050;3.716;2022-08-27T08:43:12;6.57;;;3.30;;
13959;SDS011;7052;51.050;3.716;2022-08-27T08:45:51;5.85;;;3.25;;
13959;SDS011;7052;51.050;3.716;2022-08-27T08:48:21;9.43;;;3.30;;
13959;SDS011;7052;51.050;3.716;2022-08-27T08:50:54;6.85;;;3.35;;
13959;SDS011;7052;51.050;3.716;2022-08-27T08:53:31;7.78;;;3.25;;
13959;SDS011;7052;51.050;3.716;2022-08-27T08:56:04;6.03;;;2.70;;
13959;SDS011;7052;51.050;3.716;2022-08-27T08:58:37;8.25;;;3.03;;
13959;SDS011;7052;51.050;3.716;2022-08-27T09:01:10;7.25;;;2.85;;
13959;SDS011;7052;51.050;3.716;2022-08-27T09:03:41;5.90;;;3.28;;
13959;SDS011;7052;51.050;3.716;2022-08-27T09:06:17;11.68;;;4.00;;
13959;SDS011;7052;51.050;3.716;2022-08-27T09:08:47;6.28;;;3.75;;
13959;SDS011;7052;51.050;3.716;2022-08-27T09:11:16;7.20;;;3.55;;
13959;SDS011;7052;51.050;3.716;2022-08-27T09:13:53;7.75;;;4.18;;
13959;SDS011;7052;51.050;3.716;2022-08-27T09:16:24;18.23;;;5.43;;
13959;SDS011;7052;51.050;3.716;2022-08-27T09:18:50;8.77;;;4.15;;
13959;SDS011;7052;51.050;3.716;2022-08-27T09:21:20;5.95;;;3.30;;
13959;SDS011;7052;51.050;3.716;2022-08-27T09:24:07;5.55;;;2.50;;
13959;SDS011;7052;51.050;3.716;2022-08-27T09:26:39;11.68;;;3.00;;
13959;SDS011;7052;51.050;3.716;2022-08-27T09:29:09;3.88;;;2.38;;
13959;SDS011;7052;51.050;3.716;2022-08-27T09:31:45;7.78;;;2.63;;
13959;SDS011;7052;51.050;3.716;2022-08-27T09:34:17;6.28;;;2.80;;
13959;SDS011;7052;51.050;3.716;2022-08-27T09:36:49;5.20;;;2.97;;
13959;SDS011;7052;51.050;3.716;2022-08-27T09:39:31;5.70;;;2.97;;
13959;SDS011;7052;51.050;3.716;2022-08-27T09:42:00;7.32;;;2.75;;
13959;SDS011;7052;51.050;3.716;2022-08-27T09:44:28;5.53;;;2.83;;
13959;SDS011;7052;51.050;3.716;2022-08-27T09:46:59;7.07;;;2.97;;
13959;SDS011;7052;51.050;3.716;2022-08-27T09:49:29;6.70;;;2.70;;
13959;SDS011;7052;51.050;3.716;2022-08-27T09:51:58;6.88;;;2.63;;
13959;SDS011;7052;51.050;3.716;2022-08-27T09:54:36;5.63;;;2.90;;
13959;SDS011;7052;51.050;3.716;2022-08-27T09:57:05;7.97;;;2.97;;
13959;SDS011;7052;51.050;3.716;2022-08-27T09:59:35;3.92;;;2.22;;
13959;SDS011;7052;51.050;3.716;2022-08-27T10:02:06;5.60;;;2.60;;
13959;SDS011;7052;51.050;3.716;2022-08-27T10:04:40;5.80;;;2.47;;
13959;SDS011;7052;51.050;3.716;2022-08-27T10:07:30;5.63;;;3.03;;
13959;SDS011;7052;51.050;3.716;2022-08-27T10:10:07;4.57;;;2.63;;
13959;SDS011;7052;51.050;3.716;2022-08-27T10:12:41;5.72;;;2.50;;
13959;SDS011;7052;51.050;3.716;2022-08-27T10:15:16;3.92;;;2.33;;
13959;SDS011;7052;51.050;3.716;2022-08-27T10:17:47;4.35;;;2.58;;
13959;SDS011;7052;51.050;3.716;2022-08-27T10:20:24;4.72;;;2.58;;
13959;SDS011;7052;51.050;3.716;2022-08-27T10:23:00;6.47;;;3.00;;
13959;SDS011;7052;51.050;3.716;2022-08-27T10:25:36;5.68;;;2.53;;
13959;SDS011;7052;51.050;3.716;2022-08-27T10:28:12;6.05;;;3.25;;
13959;SDS011;7052;51.050;3.716;2022-08-27T10:30:51;3.97;;;2.53;;
13959;SDS011;7052;51.050;3.716;2022-08-27T10:33:35;6.30;;;2.85;;
13959;SDS011;7052;51.050;3.716;2022-08-27T10:36:13;36.58;;;6.68;;
13959;SDS011;7052;51.050;3.716;2022-08-27T10:38:46;7.35;;;2.75;;
13959;SDS011;7052;51.050;3.716;2022-08-27T10:41:22;6.18;;;2.70;;
13959;SDS011;7052;51.050;3.716;2022-08-27T10:43:57;5.18;;;2.70;;
13959;SDS011;7052;51.050;3.716;2022-08-27T10:46:47;24.88;;;6.32;;
13959;SDS011;7052;51.050;3.716;2022-08-27T10:49:24;8.50;;;2.95;;
13959;SDS011;7052;51.050;3.716;2022-08-27T10:52:02;7.25;;;3.00;;
13959;SDS011;7052;51.050;3.716;2022-08-27T10:54:37;6.93;;;2.92;;
13959;SDS011;7052;51.050;3.716;2022-08-27T10:57:07;7.07;;;3.03;;
13959;SDS011;7052;51.050;3.716;2022-08-27T10:59:42;5.95;;;2.80;;
13959;SDS011;7052;51.050;3.716;2022-08-27T11:02:14;8.02;;;3.00;;
13959;SDS011;7052;51.050;3.716;2022-08-27T11:04:52;5.07;;;2.53;;
13959;SDS011;7052;51.050;3.716;2022-08-27T11:07:23;4.70;;;2.80;;
13959;SDS011;7052;51.050;3.716;2022-08-27T11:09:55;4.78;;;2.83;;
13959;SDS011;7052;51.050;3.716;2022-08-27T11:12:25;7.57;;;3.28;;
13959;SDS011;7052;51.050;3.716;2022-08-27T11:14:57;5.75;;;3.08;;
13959;SDS011;7052;51.050;3.716;2022-08-27T11:17:28;5.32;;;3.13;;
13959;SDS011;7052;51.050;3.716;2022-08-27T11:20:04;4.88;;;3.00;;
13959;SDS011;7052;51.050;3.716;2022-08-27T11:22:38;4.95;;;3.17;;
13959;SDS011;7052;51.050;3.716;2022-08-27T11:25:14;4.82;;;2.70;;
13959;SDS011;7052;51.050;3.716;2022-08-27T11:27:52;6.57;;;2.67;;
13959;SDS011;7052;51.050;3.716;2022-08-27T11:30:22;5.82;;;2.50;;
13959;SDS011;7052;51.050;3.716;2022-08-27T11:32:57;7.55;;;2.53;;
13959;SDS011;7052;51.050;3.716;2022-08-27T11:35:33;7.95;;;3.65;;
13959;SDS011;7052;51.050;3.716;2022-08-27T11:38:11;4.65;;;2.90;;
13959;SDS011;7052;51.050;3.716;2022-08-27T11:41:05;6.30;;;3.53;;
13959;SDS011;7052;51.050;3.716;2022-08-27T11:43:52;9.10;;;5.25;;
13959;SDS011;7052;51.050;3.716;2022-08-27T11:46:20;7.85;;;4.38;;
13959;SDS011;7052;51.050;3.716;2022-08-27T11:48:54;7.00;;;3.05;;
13959;SDS011;7052;51.050;3.716;2022-08-27T11:51:26;6.55;;;2.60;;
13959;SDS011;7052;51.050;3.716;2022-08-27T11:53:57;4.82;;;2.22;;
13959;SDS011;7052;51.050;3.716;2022-08-27T11:56:34;4.00;;;2.05;;
13959;SDS011;7052;51.050;3.716;2022-08-27T11:59:08;4.93;;;2.20;;
13959;SDS011;7052;51.050;3.716;2022-08-27T12:01:48;5.40;;;2.80;;
13959;SDS011;7052;51.050;3.716;2022-08-27T12:04:22;4.80;;;3.10;;
13959;SDS011;7052;51.050;3.716;2022-08-27T12:07:01;8.50;;;3.92;;
13959;SDS011;7052;51.050;3.716;2022-08-27T12:09:41;7.20;;;3.40;;
13959;SDS011;7052;51.050;3.716;2022-08-27T12:12:19;7.82;;;3.75;;
13959;SDS011;7052;51.050;3.716;2022-08-27T12:14:51;7.10;;;3.75;;
13959;SDS011;7052;51.050;3.716;2022-08-27T12:17:25;7.13;;;3.72;;
13959;SDS011;7052;51.050;3.716;2022-08-27T12:20:05;6.18;;;3.55;;
13959;SDS011;7052;51.050;3.716;2022-08-27T12:22:53;5.60;;;3.30;;
13959;SDS011;7052;51.050;3.716;2022-08-27T12:25:56;14.60;;;4.80;;
13959;SDS011;7052;51.050;3.716;2022-08-27T12:28:26;9.20;;;4.97;;
13959;SDS011;7052;51.050;3.716;2022-08-27T12:30:53;7.93;;;4.05;;
13959;SDS011;7052;51.050;3.716;2022-08-27T12:33:25;5.80;;;3.35;;
13959;SDS011;7052;51.050;3.716;2022-08-27T12:35:55;6.53;;;3.53;;
13959;SDS011;7052;51.050;3.716;2022-08-27T12:38:37;13.02;;;4.93;;
13959;SDS011;7052;51.050;3.716;2022-08-27T12:41:09;8.57;;;4.20;;
13959;SDS011;7052;51.050;3.716;2022-08-27T12:43:37;5.35;;;3.47;;
13959;SDS011;7052;51.050;3.716;2022-08-27T12:46:10;6.20;;;3.83;;
13959;SDS011;7052;51.050;3.716;2022-08-27T12:48:40;9.70;;;4.35;;
13959;SDS011;7052;51.050;3.716;2022-08-27T12:51:11;6.88;;;3.50;;
13959;SDS011;7052;51.050;3.716;2022-08-27T12:53:42;6.07;;;3.20;;
13959;SDS011;7052;51.050;3.716;2022-08-27T12:56:22;6.88;;;3.50;;
13959;SDS011;7052;51.050;3.716;2022-08-27T12:59:05;5.70;;;3.00;;
13959;SDS011;7052;51.050;3.716;2022-08-27T13:01:46;4.18;;;3.00;;
13959;SDS011;7052;51.050;3.716;2022-08-27T13:04:21;11.73;;;4.10;;
13959;SDS011;7052;51.050;3.716;2022-08-27T13:06:50;6.00;;;3.50;;
13959;SDS011;7052;51.050;3.716;2022-08-27T13:09:25;4.55;;;3.03;;
13959;SDS011;7052;51.050;3.716;2022-08-27T13:11:53;5.93;;;3.13;;
13959;SDS011;7052;51.050;3.716;2022-08-27T13:14:21;5.72;;;2.90;;
13959;SDS011;7052;51.050;3.716;2022-08-27T13:16:50;8.27;;;3.78;;
13959;SDS011;7052;51.050;3.716;2022-08-27T13:19:23;6.57;;;3.20;;
13959;SDS011;7052;51.050;3.716;2022-08-27T13:21:52;4.45;;;3.13;;
13959;SDS011;7052;51.050;3.716;2022-08-27T13:24:20;9.32;;;4.10;;
13959;SDS011;7052;51.050;3.716;2022-08-27T13:26:54;9.13;;;3.60;;
13959;SDS011;7052;51.050;3.716;2022-08-27T13:29:22;6.53;;;4.00;;
13959;SDS011;7052;51.050;3.716;2022-08-27T13:31:49;5.57;;;4.05;;
13959;SDS011;7052;51.050;3.716;2022-08-27T13:34:17;7.28;;;4.13;;
13959;SDS011;7052;51.050;3.716;2022-08-27T13:36:51;8.52;;;4.32;;
13959;SDS011;7052;51.050;3.716;2022-08-27T13:39:22;6.80;;;3.63;;
13959;SDS011;7052;51.050;3.716;2022-08-27T13:41:50;6.35;;;3.53;;
13959;SDS011;7052;51.050;3.716;2022-08-27T13:44:19;7.63;;;4.15;;
13959;SDS011;7052;51.050;3.716;2022-08-27T13:46:49;7.10;;;4.25;;
13959;SDS011;7052;51.050;3.716;2022-08-27T13:49:20;9.00;;;4.47;;
13959;SDS011;7052;51.050;3.716;2022-08-27T13:51:56;13.95;;;5.43;;
13959;SDS011;7052;51.050;3.716;2022-08-27T13:54:25;6.97;;;4.43;;
13959;SDS011;7052;51.050;3.716;2022-08-27T13:56:56;9.85;;;5.07;;
13959;SDS011;7052;51.050;3.716;2022-08-27T13:59:29;7.03;;;4.80;;
13959;SDS011;7052;51.050;3.716;2022-08-27T14:01:59;9.07;;;5.28;;
13959;SDS011;7052;51.050;3.716;2022-08-27T14:04:34;8.07;;;5.18;;
13959;SDS011;7052;51.050;3.716;2022-08-27T14:07:07;13.75;;;8.30;;
13959;SDS011;7052;51.050;3.716;2022-08-27T14:09:40;8.88;;;4.70;;
13959;SDS011;7052;51.050;3.716;2022-08-27T14:12:09;6.75;;;4.35;;
13959;SDS011;7052;51.050;3.716;2022-08-27T14:14:44;10.07;;;4.68;;
13959;SDS011;7052;51.050;3.716;2022-08-27T14:17:19;7.05;;;3.97;;
13959;SDS011;7052;51.050;3.716;2022-08-27T14:19:47;4.25;;;3.47;;
13959;SDS011;7052;51.050;3.716;2022-08-27T14:22:14;7.03;;;4.22;;
13959;SDS011;7052;51.050;3.716;2022-08-27T14:24:41;5.55;;;3.88;;
13959;SDS011;7052;51.050;3.716;2022-08-27T14:27:09;7.60;;;3.90;;
13959;SDS011;7052;51.050;3.716;2022-08-27T14:29:39;7.18;;;4.00;;
13959;SDS011;7052;51.050;3.716;2022-08-27T14:32:08;4.72;;;3.60;;
13959;SDS011;7052;51.050;3.716;2022-08-27T14:34:35;6.05;;;3.58;;
13959;SDS011;7052;51.050;3.716;2022-08-27T14:37:02;6.00;;;3.47;;
13959;SDS011;7052;51.050;3.716;2022-08-27T14:39:30;6.25;;;3.95;;
13959;SDS011;7052;51.050;3.716;2022-08-27T14:41:57;7.80;;;3.97;;
13959;SDS011;7052;51.050;3.716;2022-08-27T14:44:24;6.03;;;3.90;;
13959;SDS011;7052;51.050;3.716;2022-08-27T14:46:51;5.90;;;3.00;;
13959;SDS011;7052;51.050;3.716;2022-08-27T14:49:21;4.32;;;2.90;;
13959;SDS011;7052;51.050;3.716;2022-08-27T14:51:53;5.63;;;3.25;;
13959;SDS011;7052;51.050;3.716;2022-08-27T14:54:20;5.40;;;2.85;;
13959;SDS011;7052;51.050;3.716;2022-08-27T14:56:47;3.88;;;3.13;;
13959;SDS011;7052;51.050;3.716;2022-08-27T14:59:14;6.35;;;3.85;;
13959;SDS011;7052;51.050;3.716;2022-08-27T15:01:41;6.38;;;4.10;;
13959;SDS011;7052;51.050;3.716;2022-08-27T15:04:08;8.70;;;4.30;;
13959;SDS011;7052;51.050;3.716;2022-08-27T15:06:37;8.45;;;4.15;;
13959;SDS011;7052;51.050;3.716;2022-08-27T15:09:04;5.03;;;3.70;;
13959;SDS011;7052;51.050;3.716;2022-08-27T15:11:32;6.40;;;3.28;;
13959;SDS011;7052;51.050;3.716;2022-08-27T15:14:02;5.40;;;3.10;;
13959;SDS011;7052;51.050;3.716;2022-08-27T15:16:31;3.90;;;2.75;;